M/T Yigit — 9HUZ9 — position and weather

sailwx.info

Track history (hours):
 
Tides and Currents Weather Stations Pressure Air Temp Water Temp Dewpoint Dewpoint Depression Visibility Wind Speed Wind Dir Waves Ship Positions

M/T Yigit

Last reported at 2017-Dec-03 13:29 UTC. Time now 2017-Dec-13 01:28 UTC.
Position N 44°52' E 036°34'.
Warning: this ship's position is 9 days out of date.

Length 87 m; draft 4.8 m.

Type: Tanker. MMSI: 249569000.

Date/timePositionNaut miles runAvg speedWind from/ knotsBaromVisibWave heightAir tempDewpointWater temp
2017-Dec-03 13:29N 44°52' E 036°34'0 0.0
2017-Dec-03 08:10N 44°52' E 036°34'0 0.0
2017-Dec-03 06:34N 44°52' E 036°34'0 0.0
2017-Dec-03 06:19N 44°52' E 036°34'0 0.0
2017-Dec-03 05:43N 44°52' E 036°34'0 0.0
2017-Dec-01 23:18N 44°52' E 036°34'  
2017-Nov-26 05:08N 37°53' E 024°32'210.7
2017-Nov-26 04:58N 37°52' E 024°30'1110.4
2017-Nov-26 03:53N 37°44' E 024°19'710.5
2017-Nov-26 03:13N 37°39' E 024°13'410.4
2017-Nov-26 02:52N 37°36' E 024°11'410.5
2017-Nov-26 02:30N 37°33' E 024°08'810.3
2017-Nov-26 01:44N 37°26' E 024°03'310.1
2017-Nov-26 01:24N 37°23' E 024°01'455 9.7
2017-Nov-24 02:19N 36°42' E 014°33'310.9
2017-Nov-24 02:00N 36°44' E 014°29'511.0
2017-Nov-24 01:30N 36°47' E 014°23'510.6
2017-Nov-24 01:00N 36°49' E 014°17'510.2
2017-Nov-24 00:30N 36°52' E 014°12'510.6
2017-Nov-24 00:01N 36°54' E 014°06'510.3
2017-Nov-23 23:31N 36°56' E 013°60'510.0
2017-Nov-23 23:00N 36°58' E 013°54'510.2
2017-Nov-23 22:30N 37°00' E 013°48'  
Track history (hours):
 
Tides and Currents Weather Stations Pressure Air Temp Water Temp Dewpoint Dewpoint Depression Visibility Wind Speed Wind Dir Waves Ship Positions

M/T Yigit

Last reported at 2017-Dec-03 13:29 UTC. Time now 2017-Dec-13 01:28 UTC.
Position N 44°52' E 036°34'.
Warning: this ship's position is 9 days out of date.

Length 87 m; draft 4.8 m.

Type: Tanker. MMSI: 249569000.

Date/timePositionNaut miles runAvg speedWind from/ knotsBaromVisibWave heightAir tempDewpointWater temp
2017-Dec-03 13:29N 44°52' E 036°34'0 0.0
2017-Dec-03 08:10N 44°52' E 036°34'0 0.0
2017-Dec-03 06:34N 44°52' E 036°34'0 0.0
2017-Dec-03 06:19N 44°52' E 036°34'0 0.0
2017-Dec-03 05:43N 44°52' E 036°34'0 0.0
2017-Dec-01 23:18N 44°52' E 036°34'  
2017-Nov-26 05:08N 37°53' E 024°32'210.7
2017-Nov-26 04:58N 37°52' E 024°30'1110.4
2017-Nov-26 03:53N 37°44' E 024°19'710.5
2017-Nov-26 03:13N 37°39' E 024°13'410.4
2017-Nov-26 02:52N 37°36' E 024°11'410.5
2017-Nov-26 02:30N 37°33' E 024°08'810.3
2017-Nov-26 01:44N 37°26' E 024°03'310.1
2017-Nov-26 01:24N 37°23' E 024°01'455 9.7
2017-Nov-24 02:19N 36°42' E 014°33'310.9
2017-Nov-24 02:00N 36°44' E 014°29'511.0
2017-Nov-24 01:30N 36°47' E 014°23'510.6
2017-Nov-24 01:00N 36°49' E 014°17'510.2
2017-Nov-24 00:30N 36°52' E 014°12'510.6
2017-Nov-24 00:01N 36°54' E 014°06'510.3
2017-Nov-23 23:31N 36°56' E 013°60'510.0
2017-Nov-23 23:00N 36°58' E 013°54'510.2
2017-Nov-23 22:30N 37°00' E 013°48'  

Dump ship's entire track history